Time;durP1;ratioP1;P1;durP2;ratioP2;P2;SDS_P1;SDS_P2;PMS_P1;PMS_P2;Temp;Humidity;BMP_temperature;BMP_pressure;BME280_temperature;BME280_humidity;BME280_pressure;Samples;Min_cycle;Max_cycle;Signal;HPM_P1;HPM_P2
2022/04/04 00:01:29;;;;;;;;;;;2.00;62.50;;;;;;5077632;28;19930;-69
2022/04/04 00:03:55;;;;;;;;;;;1.90;62.20;;;;;;5077302;28;19908;-69
2022/04/04 00:06:20;;;;;;;;;;;1.90;62.90;;;;;;5077768;28;19916;-69
2022/04/04 00:08:46;;;;;;;;;;;1.90;62.30;;;;;;5077072;28;19995;-68
2022/04/04 00:11:12;;;;;;;;;;;1.90;61.90;;;;;;5077299;28;19948;-68
2022/04/04 00:13:38;;;;;;;;;;;1.80;62.40;;;;;;5077320;28;20035;-69
2022/04/04 00:16:07;;;;;;;;;;;1.90;62.50;;;;;;5077624;28;19909;-68
2022/04/04 00:18:33;;;;;;;;;;;1.90;65.40;;;;;;5077261;28;19908;-68
2022/04/04 00:21:00;;;;;;;;;;;1.80;64.90;;;;;;5077500;28;20426;-69
2022/04/04 00:23:26;;;;;;;;;;;1.80;64.80;;;;;;5077085;28;19908;-68
2022/04/04 00:25:51;;;;;;;;;;;1.80;64.40;;;;;;5077356;28;19934;-68
2022/04/04 00:28:17;;;;;;;;;;;1.80;65.90;;;;;;5076745;28;19908;-68
2022/04/04 00:30:43;;;;;;;;;;;1.80;64.70;;;;;;5077257;28;19916;-68
2022/04/04 00:33:09;;;;;;;;;;;1.80;63.30;;;;;;5077008;28;20287;-68
2022/04/04 00:35:35;;;;;;;;;;;1.80;63.60;;;;;;5077345;28;19908;-69
2022/04/04 00:38:01;;;;;;;;;;;1.70;62.80;;;;;;5076964;28;20405;-68
2022/04/04 00:40:27;;;;;;;;;;;1.70;63.00;;;;;;5076932;28;19909;-68
2022/04/04 00:42:53;;;;;;;;;;;1.60;63.40;;;;;;5077135;28;19912;-68
2022/04/04 00:45:19;;;;;;;;;;;1.60;63.80;;;;;;5077292;28;19913;-69
2022/04/04 00:47:44;;;;;;;;;;;1.60;65.00;;;;;;5076828;28;19924;-69
2022/04/04 00:50:10;;;;;;;;;;;1.60;65.00;;;;;;5077339;28;19955;-68
2022/04/04 00:52:36;;;;;;;;;;;1.60;65.80;;;;;;5079606;28;19909;-68
2022/04/04 00:55:01;;;;;;;;;;;1.50;66.00;;;;;;5080853;28;19913;-68
2022/04/04 00:57:28;;;;;;;;;;;1.50;66.50;;;;;;5080499;28;19909;-68
2022/04/04 00:59:54;;;;;;;;;;;1.50;65.50;;;;;;5080889;28;20383;-69
2022/04/04 01:02:20;;;;;;;;;;;1.40;64.80;;;;;;5080329;28;19938;-68
2022/04/04 01:04:46;;;;;;;;;;;1.40;64.40;;;;;;5080534;28;20379;-68
2022/04/04 01:07:11;;;;;;;;;;;1.40;63.60;;;;;;5080046;28;19999;-68
2022/04/04 01:09:37;;;;;;;;;;;1.30;64.60;;;;;;5080227;28;19915;-68
2022/04/04 01:12:08;;;;;;;;;;;1.30;67.10;;;;;;5080289;28;19913;-68
2022/04/04 01:14:35;;;;;;;;;;;1.40;68.40;;;;;;5080538;28;19948;-68
2022/04/04 01:17:01;;;;;;;;;;;1.30;66.80;;;;;;5080389;28;19996;-68
2022/04/04 01:19:26;;;;;;;;;;;1.30;68.20;;;;;;5080267;28;19948;-68
2022/04/04 01:21:53;;;;;;;;;;;1.30;68.60;;;;;;5079817;28;19913;-68
2022/04/04 01:24:20;;;;;;;;;;;1.30;68.70;;;;;;5079998;28;19908;-68
2022/04/04 01:26:48;;;;;;;;;;;1.30;69.50;;;;;;5079625;28;19928;-68
2022/04/04 01:29:14;;;;;;;;;;;1.30;69.20;;;;;;5080122;28;19909;-69
2022/04/04 01:31:39;;;;;;;;;;;1.30;68.50;;;;;;5079761;28;19920;-68
2022/04/04 01:34:05;;;;;;;;;;;1.20;68.90;;;;;;5079786;28;19969;-68
2022/04/04 01:36:31;;;;;;;;;;;1.20;69.00;;;;;;5079956;28;19915;-68
2022/04/04 01:38:56;;;;;;;;;;;1.20;68.60;;;;;;5079560;28;19909;-68
2022/04/04 01:41:22;;;;;;;;;;;1.20;67.70;;;;;;5079590;28;19914;-69
2022/04/04 01:43:48;;;;;;;;;;;1.20;68.80;;;;;;5079800;28;19909;-69
2022/04/04 01:46:26;;;;;;;;;;;1.10;69.50;;;;;;5079543;28;19924;-69
2022/04/04 01:48:53;;;;;;;;;;;1.10;70.70;;;;;;5061502;28;19995;-68
2022/04/04 01:51:19;;;;;;;;;;;1.10;71.50;;;;;;5079412;28;20001;-68
2022/04/04 01:53:45;;;;;;;;;;;1.10;71.60;;;;;;5079335;28;19908;-68
2022/04/04 01:56:11;;;;;;;;;;;1.10;72.10;;;;;;5079307;28;19908;-68
2022/04/04 01:58:36;;;;;;;;;;;1.10;70.90;;;;;;5079539;28;19954;-68
2022/04/04 02:01:08;;;;;;;;;;;1.00;71.80;;;;;;5079335;28;19912;-68
2022/04/04 02:03:33;;;;;;;;;;;1.00;72.00;;;;;;5078237;28;20042;-68
2022/04/04 02:06:00;;;;;;;;;;;1.00;71.50;;;;;;5079188;28;19940;-68
2022/04/04 02:08:26;;;;;;;;;;;1.00;71.90;;;;;;5079029;28;20287;-68
2022/04/04 02:10:51;;;;;;;;;;;0.90;71.30;;;;;;5078900;28;19919;-68
2022/04/04 02:13:17;;;;;;;;;;;1.00;72.30;;;;;;5079177;28;19951;-68
2022/04/04 02:15:43;;;;;;;;;;;0.90;71.90;;;;;;5079095;28;19920;-68
2022/04/04 02:18:09;;;;;;;;;;;0.90;70.40;;;;;;5079144;28;20334;-68
2022/04/04 02:20:35;;;;;;;;;;;0.80;68.60;;;;;;5078878;28;19915;-68
2022/04/04 02:23:00;;;;;;;;;;;0.80;67.30;;;;;;5078873;28;20283;-68
2022/04/04 02:25:26;;;;;;;;;;;0.70;67.00;;;;;;5078593;28;19915;-68
2022/04/04 02:27:52;;;;;;;;;;;0.70;66.60;;;;;;5060523;28;19908;-68
2022/04/04 02:30:17;;;;;;;;;;;0.70;67.70;;;;;;5078565;28;19919;-68
2022/04/04 02:32:43;;;;;;;;;;;0.70;69.20;;;;;;5078702;28;19912;-68
2022/04/04 02:35:09;;;;;;;;;;;0.70;70.40;;;;;;5078471;28;19916;-68
2022/04/04 02:37:34;;;;;;;;;;;0.70;70.40;;;;;;5078493;28;19908;-68
2022/04/04 02:40:00;;;;;;;;;;;0.70;71.50;;;;;;5078183;28;19909;-68
2022/04/04 02:42:26;;;;;;;;;;;0.70;71.00;;;;;;5078585;28;20002;-68
2022/04/04 02:44:54;;;;;;;;;;;0.70;71.80;;;;;;5078438;28;20323;-68
2022/04/04 02:47:19;;;;;;;;;;;0.70;73.30;;;;;;5078569;28;20003;-68
2022/04/04 02:49:45;;;;;;;;;;;0.70;73.80;;;;;;5078064;28;19966;-68
2022/04/04 02:52:12;;;;;;;;;;;0.70;74.00;;;;;;5078078;28;19970;-68
2022/04/04 02:54:37;;;;;;;;;;;0.60;72.40;;;;;;5078150;28;19909;-68
2022/04/04 02:57:03;;;;;;;;;;;0.60;72.00;;;;;;5078455;28;19908;-68
2022/04/04 02:59:29;;;;;;;;;;;0.60;73.10;;;;;;5078191;28;19934;-68
2022/04/04 03:01:54;;;;;;;;;;;0.50;71.80;;;;;;5078212;28;19930;-68
2022/04/04 03:04:20;;;;;;;;;;;0.60;72.60;;;;;;5078175;28;19908;-68
2022/04/04 03:06:46;;;;;;;;;;;0.50;73.10;;;;;;5078036;28;19909;-68
2022/04/04 03:09:11;;;;;;;;;;;0.50;72.00;;;;;;5077823;28;20399;-68
2022/04/04 03:11:37;;;;;;;;;;;0.50;71.80;;;;;;5078091;28;19927;-68
2022/04/04 03:14:03;;;;;;;;;;;0.50;73.00;;;;;;5077703;28;19919;-68
2022/04/04 03:16:29;;;;;;;;;;;0.50;71.80;;;;;;5078357;28;19913;-68
2022/04/04 03:18:54;;;;;;;;;;;0.40;70.70;;;;;;5077846;28;20401;-68
2022/04/04 03:21:21;;;;;;;;;;;0.40;72.00;;;;;;5078131;28;19913;-68
2022/04/04 03:23:47;;;;;;;;;;;0.40;72.20;;;;;;5077556;28;20062;-68
2022/04/04 03:26:13;;;;;;;;;;;0.40;72.40;;;;;;5078069;28;19960;-68
2022/04/04 03:28:39;;;;;;;;;;;0.40;72.00;;;;;;5077430;28;20360;-68
2022/04/04 03:31:05;;;;;;;;;;;0.40;71.70;;;;;;5078026;28;19919;-68
2022/04/04 03:33:31;;;;;;;;;;;0.30;70.70;;;;;;5077433;28;20318;-69
2022/04/04 03:35:58;;;;;;;;;;;0.30;70.80;;;;;;5077882;28;19916;-69
2022/04/04 03:38:24;;;;;;;;;;;0.30;72.50;;;;;;5077382;28;19913;-68
2022/04/04 03:40:50;;;;;;;;;;;0.30;72.10;;;;;;5077499;28;19973;-69
2022/04/04 03:43:16;;;;;;;;;;;0.20;71.00;;;;;;5077626;28;19954;-69
2022/04/04 03:45:41;;;;;;;;;;;0.20;70.10;;;;;;5077828;28;19938;-69
2022/04/04 03:48:07;;;;;;;;;;;0.20;69.90;;;;;;5077381;28;19921;-69
2022/04/04 03:50:33;;;;;;;;;;;0.20;69.00;;;;;;5077895;28;19939;-68
2022/04/04 03:52:59;;;;;;;;;;;0.20;70.10;;;;;;5077229;28;19908;-68
2022/04/04 03:55:27;;;;;;;;;;;0.10;70.00;;;;;;5077707;28;19908;-69
2022/04/04 03:57:53;;;;;;;;;;;0.10;70.60;;;;;;5077440;28;19909;-69
2022/04/04 04:00:19;;;;;;;;;;;0.10;70.20;;;;;;5077591;28;19909;-69
2022/04/04 04:02:45;;;;;;;;;;;0.10;71.00;;;;;;5077363;28;19932;-69
2022/04/04 04:05:10;;;;;;;;;;;0.10;70.00;;;;;;5077575;28;19908;-68
2022/04/04 04:07:36;;;;;;;;;;;0.10;70.60;;;;;;5077056;28;19916;-69
2022/04/04 04:10:03;;;;;;;;;;;0.10;71.80;;;;;;5077430;28;20023;-69
2022/04/04 04:12:28;;;;;;;;;;;0.00;70.90;;;;;;5077315;28;19966;-69
2022/04/04 04:14:54;;;;;;;;;;;0.00;70.80;;;;;;5077532;28;19908;-69
2022/04/04 04:17:21;;;;;;;;;;;0.00;71.00;;;;;;5077305;28;19908;-69
2022/04/04 04:22:31;;;;;;;;;;;0.00;73.20;;;;;;5066269;28;19958;-69
2022/04/04 04:24:57;;;;;;;;;;;0.00;73.50;;;;;;5077124;28;20308;-69
2022/04/04 04:27:23;;;;;;;;;;;0.00;73.00;;;;;;5079539;28;20312;-69
2022/04/04 04:29:49;;;;;;;;;;;0.00;72.90;;;;;;5080965;28;19912;-69
2022/04/04 04:32:14;;;;;;;;;;;0.00;73.60;;;;;;5080918;28;19912;-69
2022/04/04 04:34:40;;;;;;;;;;;-0.10;73.20;;;;;;5081005;28;19987;-69
2022/04/04 04:37:06;;;;;;;;;;;-0.10;72.70;;;;;;5080850;28;20007;-68
2022/04/04 04:39:32;;;;;;;;;;;-0.10;73.10;;;;;;5080649;28;19908;-69
2022/04/04 04:41:57;;;;;;;;;;;-0.10;71.70;;;;;;5080950;28;19915;-69
2022/04/04 04:44:23;;;;;;;;;;;-0.20;70.20;;;;;;5080757;28;19919;-69
2022/04/04 04:46:49;;;;;;;;;;;-0.20;69.40;;;;;;5081054;28;19999;-69
2022/04/04 04:49:15;;;;;;;;;;;-0.20;69.00;;;;;;5080637;28;19966;-69
2022/04/04 04:51:41;;;;;;;;;;;-0.20;68.10;;;;;;5080486;28;20031;-69
2022/04/04 04:54:08;;;;;;;;;;;-0.20;69.20;;;;;;5080360;28;19958;-69
2022/04/04 04:56:36;;;;;;;;;;;-0.30;68.60;;;;;;5080162;28;20440;-69
2022/04/04 04:59:02;;;;;;;;;;;-0.30;68.20;;;;;;5080471;28;19935;-68
2022/04/04 05:01:28;;;;;;;;;;;-0.30;68.00;;;;;;5080568;28;19954;-70
2022/04/04 05:03:54;;;;;;;;;;;-0.30;68.10;;;;;;5079919;28;19908;-69
2022/04/04 05:06:19;;;;;;;;;;;-0.30;67.50;;;;;;5080469;28;19916;-69
2022/04/04 05:08:45;;;;;;;;;;;-0.40;67.00;;;;;;5079799;28;19908;-71
2022/04/04 05:11:11;;;;;;;;;;;-0.40;67.90;;;;;;5080221;28;19924;-72
2022/04/04 05:13:36;;;;;;;;;;;-0.40;67.50;;;;;;5080278;28;19908;-71
2022/04/04 05:16:04;;;;;;;;;;;-0.40;69.50;;;;;;5080352;28;19908;-72
2022/04/04 05:18:30;;;;;;;;;;;-0.40;70.10;;;;;;5080329;28;20286;-73
2022/04/04 05:20:56;;;;;;;;;;;-0.40;69.20;;;;;;5080319;28;19909;-72
2022/04/04 05:23:22;;;;;;;;;;;-0.50;68.30;;;;;;5061741;28;19952;-73
2022/04/04 05:25:48;;;;;;;;;;;-0.50;68.00;;;;;;5062074;28;19908;-73
2022/04/04 05:28:14;;;;;;;;;;;-0.50;67.90;;;;;;5079691;28;19915;-73
2022/04/04 05:30:39;;;;;;;;;;;-0.50;68.20;;;;;;5080015;28;19912;-72
2022/04/04 05:33:05;;;;;;;;;;;-0.50;68.60;;;;;;5079788;28;20390;-73
2022/04/04 05:35:31;;;;;;;;;;;-0.50;70.90;;;;;;5080042;28;19955;-73
2022/04/04 05:37:56;;;;;;;;;;;-0.50;70.80;;;;;;5079393;28;19909;-73
2022/04/04 05:40:23;;;;;;;;;;;-0.50;71.50;;;;;;5079615;28;19996;-73
2022/04/04 05:42:49;;;;;;;;;;;-0.50;72.50;;;;;;5079594;28;20382;-71
2022/04/04 05:45:14;;;;;;;;;;;-0.40;73.30;;;;;;5080004;28;19908;-71
2022/04/04 05:47:41;;;;;;;;;;;-0.50;72.20;;;;;;5079583;28;19912;-71
2022/04/04 05:50:07;;;;;;;;;;;-0.40;71.90;;;;;;5079683;28;20450;-68
2022/04/04 05:52:34;;;;;;;;;;;-0.50;71.10;;;;;;5079252;28;20399;-67
2022/04/04 05:55:01;;;;;;;;;;;-0.40;70.00;;;;;;5079643;28;19960;-70
2022/04/04 05:57:28;;;;;;;;;;;-0.40;71.70;;;;;;5079001;28;19948;-69
2022/04/04 05:59:55;;;;;;;;;;;-0.40;71.40;;;;;;5078379;28;19915;-69
2022/04/04 06:02:21;;;;;;;;;;;-0.40;72.70;;;;;;5079153;28;19908;-69
2022/04/04 06:04:47;;;;;;;;;;;-0.40;71.20;;;;;;5078169;28;20403;-69
2022/04/04 06:07:13;;;;;;;;;;;-0.40;69.90;;;;;;5078953;28;19970;-69
2022/04/04 06:09:39;;;;;;;;;;;-0.40;68.80;;;;;;5079323;28;19908;-69
2022/04/04 06:12:04;;;;;;;;;;;-0.40;69.00;;;;;;5079056;28;19927;-69
2022/04/04 06:14:30;;;;;;;;;;;-0.40;68.30;;;;;;5079354;28;19931;-69
2022/04/04 06:16:56;;;;;;;;;;;-0.30;68.10;;;;;;5079076;28;19913;-69
2022/04/04 06:19:21;;;;;;;;;;;-0.30;69.00;;;;;;5079261;28;19908;-69
2022/04/04 06:21:47;;;;;;;;;;;-0.30;71.00;;;;;;5078638;28;19915;-69
2022/04/04 06:24:13;;;;;;;;;;;-0.20;73.10;;;;;;5079084;28;19908;-69
2022/04/04 06:26:39;;;;;;;;;;;-0.20;72.20;;;;;;5078681;28;19908;-69
2022/04/04 06:29:09;;;;;;;;;;;-0.10;72.00;;;;;;5078867;28;19934;-69
2022/04/04 06:31:36;;;;;;;;;;;-0.10;71.80;;;;;;5078776;28;19912;-69
2022/04/04 06:34:04;;;;;;;;;;;0.00;70.60;;;;;;5078562;28;19962;-69
2022/04/04 06:36:30;;;;;;;;;;;0.00;69.50;;;;;;5078674;28;19908;-69
2022/04/04 06:38:56;;;;;;;;;;;0.10;68.90;;;;;;5078668;28;19909;-69
2022/04/04 06:41:22;;;;;;;;;;;0.20;68.80;;;;;;5078390;28;20397;-69
2022/04/04 06:43:48;;;;;;;;;;;0.30;68.60;;;;;;5078529;28;19995;-69
2022/04/04 06:46:14;;;;;;;;;;;0.30;68.50;;;;;;5078689;28;19980;-69
2022/04/04 06:48:39;;;;;;;;;;;0.40;68.20;;;;;;5077889;28;19924;-69
2022/04/04 06:51:05;;;;;;;;;;;0.40;68.50;;;;;;5078291;28;19920;-69
2022/04/04 06:53:31;;;;;;;;;;;0.50;68.60;;;;;;5078216;28;19909;-69
2022/04/04 06:55:57;;;;;;;;;;;0.50;68.80;;;;;;5078197;28;19908;-69
2022/04/04 06:58:24;;;;;;;;;;;0.60;68.70;;;;;;5078494;28;19915;-69
2022/04/04 07:00:50;;;;;;;;;;;0.60;68.60;;;;;;5078326;28;19913;-69
2022/04/04 07:03:15;;;;;;;;;;;0.70;69.00;;;;;;5078204;28;19916;-69
2022/04/04 07:05:41;;;;;;;;;;;0.70;68.60;;;;;;5078176;28;20342;-69
2022/04/04 07:08:07;;;;;;;;;;;0.80;70.00;;;;;;5059975;28;19913;-69
2022/04/04 07:10:33;;;;;;;;;;;0.90;69.40;;;;;;5077912;28;20402;-69
2022/04/04 07:12:59;;;;;;;;;;;1.00;69.40;;;;;;5078191;28;19909;-69
2022/04/04 07:15:25;;;;;;;;;;;1.30;69.70;;;;;;5078001;28;19916;-69
2022/04/04 07:17:50;;;;;;;;;;;1.50;70.60;;;;;;5060115;28;19987;-69
2022/04/04 07:20:16;;;;;;;;;;;1.80;72.50;;;;;;5077971;28;20358;-69
2022/04/04 07:22:42;;;;;;;;;;;2.20;73.40;;;;;;5059796;28;19909;-69
2022/04/04 07:25:09;;;;;;;;;;;2.30;71.80;;;;;;5077827;28;19909;-69
2022/04/04 07:27:41;;;;;;;;;;;2.60;72.50;;;;;;5077652;28;19931;-69
2022/04/04 07:30:08;;;;;;;;;;;2.70;71.00;;;;;;5077778;28;19916;-69
2022/04/04 07:32:34;;;;;;;;;;;2.90;71.10;;;;;;5077776;28;19912;-69
2022/04/04 07:35:00;;;;;;;;;;;3.10;70.60;;;;;;5077710;28;20011;-69
2022/04/04 07:37:25;;;;;;;;;;;3.30;70.70;;;;;;5077701;28;19966;-69
2022/04/04 07:39:51;;;;;;;;;;;3.50;70.70;;;;;;5077430;28;19912;-69
2022/04/04 07:42:17;;;;;;;;;;;3.80;71.20;;;;;;5077874;28;19916;-69
2022/04/04 07:44:43;;;;;;;;;;;4.10;71.60;;;;;;5077572;28;19912;-69
2022/04/04 07:47:09;;;;;;;;;;;4.30;71.10;;;;;;5077954;28;19909;-69
2022/04/04 07:49:34;;;;;;;;;;;4.60;70.90;;;;;;5077490;28;19938;-70
2022/04/04 07:52:00;;;;;;;;;;;4.90;71.00;;;;;;5077425;28;19912;-69
2022/04/04 07:54:26;;;;;;;;;;;5.10;70.50;;;;;;5077423;28;19992;-69
2022/04/04 07:56:53;;;;;;;;;;;5.60;70.40;;;;;;5077925;28;20382;-69
2022/04/04 07:59:19;;;;;;;;;;;6.10;69.70;;;;;;5077522;28;19915;-69
2022/04/04 08:01:45;;;;;;;;;;;6.60;69.20;;;;;;5081258;28;19909;-69
2022/04/04 08:04:12;;;;;;;;;;;6.90;68.30;;;;;;5081606;28;19974;-69
2022/04/04 08:06:37;;;;;;;;;;;7.10;67.80;;;;;;5081495;28;19913;-70
2022/04/04 08:09:03;;;;;;;;;;;7.30;67.60;;;;;;5081379;28;19908;-70
2022/04/04 08:11:29;;;;;;;;;;;7.50;66.90;;;;;;5081654;28;19919;-70
2022/04/04 08:13:54;;;;;;;;;;;7.50;67.10;;;;;;5081437;28;19991;-70
2022/04/04 08:16:22;;;;;;;;;;;7.80;67.60;;;;;;5081467;28;19922;-70
2022/04/04 08:18:48;;;;;;;;;;;8.20;67.50;;;;;;5081313;28;20295;-70
2022/04/04 08:21:15;;;;;;;;;;;9.00;64.90;;;;;;5081293;28;19912;-70
2022/04/04 08:23:42;;;;;;;;;;;9.40;64.10;;;;;;5081082;28;19915;-70
2022/04/04 08:26:07;;;;;;;;;;;9.40;65.10;;;;;;5081103;28;20394;-70
2022/04/04 08:28:33;;;;;;;;;;;9.90;63.20;;;;;;5080743;28;19962;-70
2022/04/04 08:30:59;;;;;;;;;;;10.40;62.30;;;;;;5081246;28;20499;-70
2022/04/04 08:33:24;;;;;;;;;;;11.30;61.60;;;;;;5080890;28;20318;-70
2022/04/04 08:35:53;;;;;;;;;;;11.90;60.70;;;;;;5081119;28;20016;-70
2022/04/04 08:38:19;;;;;;;;;;;12.40;57.40;;;;;;5080637;28;20391;-70
2022/04/04 08:40:45;;;;;;;;;;;12.40;57.40;;;;;;5080946;28;20003;-70
2022/04/04 08:43:11;;;;;;;;;;;12.40;57.10;;;;;;5080795;28;19909;-70
2022/04/04 08:45:38;;;;;;;;;;;12.40;56.00;;;;;;5080868;28;19909;-70
2022/04/04 08:48:05;;;;;;;;;;;12.40;55.10;;;;;;5080559;28;19932;-70
2022/04/04 08:50:32;;;;;;;;;;;12.40;55.00;;;;;;5080814;28;19920;-70
2022/04/04 08:52:59;;;;;;;;;;;12.40;55.70;;;;;;5080284;28;19908;-70
2022/04/04 08:55:25;;;;;;;;;;;12.70;55.50;;;;;;5080656;28;19935;-70
2022/04/04 08:57:52;;;;;;;;;;;12.90;56.20;;;;;;5080516;28;20371;-71
2022/04/04 09:00:18;;;;;;;;;;;13.60;53.30;;;;;;5080821;28;19916;-71
2022/04/04 09:03:02;;;;;;;;;;;14.00;53.30;;;;;;5080356;28;20326;-71
2022/04/04 09:05:29;;;;;;;;;;;14.50;52.90;;;;;;5080497;28;19923;-71
2022/04/04 09:08:00;;;;;;;;;;;15.10;49.70;;;;;;5080282;28;19908;-71
2022/04/04 09:10:30;;;;;;;;;;;15.60;49.40;;;;;;5080153;28;20003;-71
2022/04/04 09:13:03;;;;;;;;;;;15.60;49.40;;;;;;5079816;28;19930;-71
2022/04/04 09:15:48;;;;;;;;;;;15.30;48.80;;;;;;5062250;28;20046;-71
2022/04/04 09:18:13;;;;;;;;;;;14.90;50.40;;;;;;5080417;28;19994;-71
2022/04/04 09:20:47;;;;;;;;;;;14.50;50.10;;;;;;5080329;28;19935;-71
2022/04/04 09:23:12;;;;;;;;;;;14.20;49.10;;;;;;5079897;28;19908;-71
2022/04/04 09:25:38;;;;;;;;;;;13.80;49.50;;;;;;5080123;28;19920;-71
2022/04/04 09:28:17;;;;;;;;;;;13.40;49.90;;;;;;5079797;28;19916;-71
2022/04/04 09:30:44;;;;;;;;;;;13.20;51.00;;;;;;5050316;28;19919;-71
2022/04/04 09:33:13;;;;;;;;;;;12.80;50.90;;;;;;5079860;28;19908;-71
2022/04/04 09:35:46;;;;;;;;;;;12.70;51.80;;;;;;5080056;28;19916;-70
2022/04/04 09:38:12;;;;;;;;;;;12.70;51.70;;;;;;5079787;28;19924;-71
2022/04/04 09:40:38;;;;;;;;;;;12.70;52.80;;;;;;5079545;28;19908;-70
2022/04/04 09:43:04;;;;;;;;;;;12.90;52.50;;;;;;5079798;28;19920;-70
2022/04/04 09:45:30;;;;;;;;;;;13.30;52.30;;;;;;5080008;28;19908;-71
2022/04/04 09:48:02;;;;;;;;;;;13.90;51.10;;;;;;5079609;28;19916;-71
2022/04/04 09:50:30;;;;;;;;;;;14.40;50.70;;;;;;5079798;28;19912;-71
2022/04/04 09:52:57;;;;;;;;;;;14.90;49.40;;;;;;5061265;28;19909;-71
2022/04/04 09:55:43;;;;;;;;;;;15.40;48.80;;;;;;5079701;28;19947;-71
2022/04/04 09:58:11;;;;;;;;;;;15.90;48.40;;;;;;5067410;28;19956;-71
2022/04/04 10:00:38;;;;;;;;;;;16.30;47.00;;;;;;5079467;28;19909;-71
2022/04/04 10:03:12;;;;;;;;;;;16.60;46.30;;;;;;5079600;28;19912;-71
2022/04/04 10:05:39;;;;;;;;;;;16.70;46.40;;;;;;5079294;28;19909;-71
2022/04/04 10:08:05;;;;;;;;;;;16.60;45.90;;;;;;5079124;28;20328;-71
2022/04/04 10:10:31;;;;;;;;;;;16.50;44.70;;;;;;5079104;28;19981;-71
2022/04/04 10:12:57;;;;;;;;;;;16.10;45.60;;;;;;5079323;28;19908;-71
2022/04/04 10:15:24;;;;;;;;;;;15.80;44.50;;;;;;5079093;28;19916;-71
2022/04/04 10:17:50;;;;;;;;;;;15.40;44.80;;;;;;5079211;28;19916;-71
2022/04/04 10:20:16;;;;;;;;;;;15.00;45.70;;;;;;5078954;28;19909;-71
2022/04/04 10:22:43;;;;;;;;;;;14.80;47.00;;;;;;5060759;28;19908;-70
2022/04/04 10:25:09;;;;;;;;;;;14.70;47.70;;;;;;5077799;28;19908;-71
2022/04/04 10:27:35;;;;;;;;;;;14.40;47.00;;;;;;5078651;28;19965;-71
2022/04/04 10:30:05;;;;;;;;;;;14.40;48.10;;;;;;5078765;28;19908;-71
2022/04/04 10:32:31;;;;;;;;;;;14.20;47.30;;;;;;5079047;28;19916;-71
2022/04/04 10:34:57;;;;;;;;;;;14.30;47.20;;;;;;5078653;28;20376;-71
2022/04/04 10:37:26;;;;;;;;;;;14.40;47.30;;;;;;5078600;28;19909;-71
2022/04/04 10:39:52;;;;;;;;;;;14.50;46.80;;;;;;5078298;28;19909;-71
2022/04/04 10:42:24;;;;;;;;;;;14.70;47.70;;;;;;5078638;28;19925;-71
2022/04/04 10:44:55;;;;;;;;;;;14.80;47.70;;;;;;5078489;28;19909;-71
2022/04/04 10:47:21;;;;;;;;;;;14.90;47.00;;;;;;5078792;28;19908;-71
2022/04/04 10:49:47;;;;;;;;;;;15.10;47.10;;;;;;5078165;28;19943;-70
2022/04/04 10:52:13;;;;;;;;;;;15.30;46.70;;;;;;5078245;28;19912;-72
2022/04/04 10:54:38;;;;;;;;;;;15.60;45.60;;;;;;5078164;28;19916;-70
2022/04/04 10:57:15;;;;;;;;;;;15.80;45.90;;;;;;5078668;28;19935;-71
2022/04/04 10:59:44;;;;;;;;;;;16.00;46.10;;;;;;5078199;28;19908;-71
2022/04/04 11:02:09;;;;;;;;;;;16.20;45.30;;;;;;5078288;28;19909;-71
2022/04/04 11:04:36;;;;;;;;;;;16.30;45.80;;;;;;5078331;28;20054;-71
2022/04/04 11:09:55;;;;;;;;;;;16.30;45.70;;;;;;5078023;28;20013;-71
2022/04/04 11:12:23;;;;;;;;;;;16.30;45.50;;;;;;5077955;28;19928;-72
2022/04/04 11:14:54;;;;;;;;;;;16.20;46.00;;;;;;5078363;28;20441;-72
2022/04/04 11:17:29;;;;;;;;;;;15.90;45.60;;;;;;5059957;28;19915;-71
2022/04/04 11:20:31;;;;;;;;;;;15.60;45.90;;;;;;5077958;28;19914;-71
2022/04/04 11:22:57;;;;;;;;;;;15.40;46.20;;;;;;5077803;28;19958;-71
2022/04/04 11:25:27;;;;;;;;;;;15.10;47.00;;;;;;5077753;28;19916;-71
2022/04/04 11:27:53;;;;;;;;;;;14.70;47.00;;;;;;5077486;28;19912;-71
2022/04/04 11:30:20;;;;;;;;;;;14.60;47.70;;;;;;5077760;28;19912;-71
2022/04/04 11:32:47;;;;;;;;;;;14.60;48.80;;;;;;5077936;28;19916;-71
2022/04/04 11:35:25;;;;;;;;;;;14.60;48.60;;;;;;5077488;28;19908;-71
2022/04/04 11:37:53;;;;;;;;;;;14.70;48.60;;;;;;5077539;28;19908;-71
2022/04/04 11:40:38;;;;;;;;;;;14.60;48.70;;;;;;5077553;28;20336;-71
2022/04/04 11:43:07;;;;;;;;;;;14.50;48.50;;;;;;5077707;28;19916;-71
2022/04/04 11:45:39;;;;;;;;;;;14.30;48.00;;;;;;5077818;28;20390;-71
2022/04/04 11:48:06;;;;;;;;;;;14.20;48.80;;;;;;5077488;28;19943;-71
2022/04/04 11:50:35;;;;;;;;;;;14.20;49.50;;;;;;5077904;28;20315;-71
2022/04/04 11:53:05;;;;;;;;;;;14.10;49.30;;;;;;5077274;28;20397;-71
2022/04/04 11:55:31;;;;;;;;;;;14.10;48.90;;;;;;5077650;28;20021;-71
2022/04/04 11:57:58;;;;;;;;;;;14.00;49.10;;;;;;5077511;28;19908;-71
2022/04/04 12:00:26;;;;;;;;;;;14.00;48.80;;;;;;5077613;28;19935;-71
2022/04/04 12:02:51;;;;;;;;;;;13.90;49.00;;;;;;5077696;28;20402;-71
2022/04/04 12:05:21;;;;;;;;;;;13.80;49.10;;;;;;5077545;28;19908;-71
2022/04/04 12:07:48;;;;;;;;;;;13.70;49.30;;;;;;5077226;28;19909;-71
2022/04/04 12:10:17;;;;;;;;;;;13.70;49.30;;;;;;5077288;28;19974;-71
2022/04/04 12:12:43;;;;;;;;;;;13.70;49.60;;;;;;5077923;28;19915;-71
2022/04/04 12:15:09;;;;;;;;;;;13.70;49.70;;;;;;5077295;28;20457;-71
2022/04/04 12:17:34;;;;;;;;;;;13.70;50.00;;;;;;5077611;28;19913;-71
2022/04/04 12:20:00;;;;;;;;;;;13.80;50.30;;;;;;5077358;28;19987;-71
2022/04/04 12:25:16;;;;;;;;;;;13.90;49.40;;;;;;5077411;28;19916;-70
2022/04/04 12:27:58;;;;;;;;;;;14.00;49.80;;;;;;5076953;28;19953;-70
2022/04/04 12:30:31;;;;;;;;;;;14.00;49.40;;;;;;5077082;28;19917;-71
2022/04/04 12:33:09;;;;;;;;;;;14.00;49.20;;;;;;5077362;28;19995;-71
2022/04/04 12:35:40;;;;;;;;;;;14.00;49.50;;;;;;5065554;28;19957;-71
2022/04/04 12:38:06;;;;;;;;;;;13.80;49.50;;;;;;5076985;28;19908;-71
2022/04/04 12:40:32;;;;;;;;;;;13.80;50.20;;;;;;5076163;28;19916;-71
2022/04/04 12:43:05;;;;;;;;;;;13.60;50.20;;;;;;5076986;28;19970;-71
2022/04/04 12:45:31;;;;;;;;;;;13.60;50.40;;;;;;5077230;28;20355;-71
2022/04/04 12:47:59;;;;;;;;;;;13.60;50.40;;;;;;5078803;28;19927;-71
2022/04/04 12:50:37;;;;;;;;;;;13.60;51.20;;;;;;5080802;28;19913;-71
2022/04/04 12:53:03;;;;;;;;;;;13.50;51.00;;;;;;5080292;28;19913;-71
2022/04/04 12:55:29;;;;;;;;;;;13.40;51.00;;;;;;5080625;28;19915;-71
2022/04/04 12:57:55;;;;;;;;;;;13.40;50.60;;;;;;5080472;28;19908;-71
2022/04/04 13:00:25;;;;;;;;;;;13.30;50.80;;;;;;5080766;28;19909;-70
2022/04/04 13:02:51;;;;;;;;;;;13.20;51.10;;;;;;5069461;28;20046;-71
2022/04/04 13:05:18;;;;;;;;;;;13.30;51.90;;;;;;5080660;28;19962;-71
2022/04/04 13:07:47;;;;;;;;;;;13.20;51.30;;;;;;5067192;28;20042;-71
2022/04/04 13:10:13;;;;;;;;;;;13.10;51.80;;;;;;5080208;28;19931;-72
2022/04/04 13:12:42;;;;;;;;;;;13.00;52.50;;;;;;5080752;28;19909;-70
2022/04/04 13:15:08;;;;;;;;;;;13.00;52.80;;;;;;5080303;28;20055;-71
2022/04/04 13:17:40;;;;;;;;;;;13.00;52.80;;;;;;5062321;28;19913;-71
2022/04/04 13:20:12;;;;;;;;;;;13.00;53.20;;;;;;5080377;28;19916;-71
2022/04/04 13:22:38;;;;;;;;;;;12.90;53.70;;;;;;5080095;28;19909;-71
2022/04/04 13:25:04;;;;;;;;;;;12.90;53.70;;;;;;5080014;28;20368;-71
2022/04/04 13:27:29;;;;;;;;;;;12.80;53.70;;;;;;5078759;28;19915;-71
2022/04/04 13:29:55;;;;;;;;;;;12.70;53.90;;;;;;5080026;28;19909;-71
2022/04/04 13:32:21;;;;;;;;;;;12.70;53.90;;;;;;5079839;28;19919;-70
2022/04/04 13:34:46;;;;;;;;;;;12.80;54.60;;;;;;5080010;28;20321;-71
2022/04/04 13:37:13;;;;;;;;;;;12.80;55.20;;;;;;5079840;28;19909;-71
2022/04/04 13:39:38;;;;;;;;;;;12.70;55.10;;;;;;5079505;28;19909;-71
2022/04/04 13:42:05;;;;;;;;;;;12.70;55.30;;;;;;5080163;28;20007;-71
2022/04/04 13:44:31;;;;;;;;;;;12.60;55.60;;;;;;5079678;28;19913;-71
2022/04/04 13:46:56;;;;;;;;;;;12.70;55.70;;;;;;5080007;28;19908;-71
2022/04/04 13:49:22;;;;;;;;;;;12.70;54.80;;;;;;5079491;28;19963;-71
2022/04/04 13:51:48;;;;;;;;;;;12.70;54.80;;;;;;5079491;28;19913;-71
2022/04/04 13:54:14;;;;;;;;;;;12.70;55.10;;;;;;5079428;28;19912;-71
2022/04/04 13:56:46;;;;;;;;;;;12.70;55.50;;;;;;5079973;28;19954;-71
2022/04/04 13:59:12;;;;;;;;;;;12.70;55.20;;;;;;5061337;28;19909;-71
2022/04/04 14:01:38;;;;;;;;;;;12.70;55.30;;;;;;5079661;28;19935;-70
2022/04/04 14:04:04;;;;;;;;;;;12.70;55.50;;;;;;5079433;28;20372;-71
2022/04/04 14:06:30;;;;;;;;;;;12.70;55.70;;;;;;5079051;28;20440;-70
2022/04/04 14:08:56;;;;;;;;;;;12.60;55.20;;;;;;5079130;28;19908;-71
2022/04/04 14:11:22;;;;;;;;;;;12.60;55.10;;;;;;5079302;28;20389;-71
2022/04/04 14:13:49;;;;;;;;;;;12.50;55.10;;;;;;5079340;28;19908;-71
2022/04/04 14:16:14;;;;;;;;;;;12.50;55.70;;;;;;5079240;28;19913;-71
2022/04/04 14:18:40;;;;;;;;;;;12.50;55.60;;;;;;5079273;28;19916;-71
2022/04/04 14:21:07;;;;;;;;;;;12.50;55.90;;;;;;5078959;28;20359;-71
2022/04/04 14:23:35;;;;;;;;;;;12.40;56.10;;;;;;5078781;28;20379;-71
2022/04/04 14:26:00;;;;;;;;;;;12.40;55.90;;;;;;5079100;28;20363;-71
2022/04/04 14:28:29;;;;;;;;;;;12.40;56.40;;;;;;5078381;28;19959;-71
2022/04/04 14:30:58;;;;;;;;;;;12.30;56.40;;;;;;5078957;28;19920;-70